Time;durP1;ratioP1;P1;durP2;ratioP2;P2;SDS_P1;SDS_P2;PMS_P1;PMS_P2;Temp;Humidity;BMP_temperature;BMP_pressure;BME280_temperature;BME280_humidity;BME280_pressure;Samples;Min_cycle;Max_cycle;Signal;HPM_P1;HPM_P2
2022/02/24 00:01:59;;;;;;;2.25;2.00;;;4.50;40.90;;;;;;5121808;28;20268;-61
2022/02/24 00:04:32;;;;;;;2.67;2.20;;;4.60;40.50;;;;;;5123186;27;20192;-61
2022/02/24 00:07:05;;;;;;;2.10;1.90;;;4.60;41.10;;;;;;5123548;28;20314;-62
2022/02/24 00:09:36;;;;;;;2.70;2.30;;;4.70;43.10;;;;;;5122844;28;20279;-62
2022/02/24 00:12:08;;;;;;;2.65;1.92;;;4.70;43.70;;;;;;5123192;28;20199;-62
2022/02/24 00:14:39;;;;;;;2.00;1.75;;;4.60;44.20;;;;;;5122905;28;20200;-61
2022/02/24 00:17:10;;;;;;;2.25;2.05;;;4.70;48.30;;;;;;5123215;28;20294;-62
2022/02/24 00:19:42;;;;;;;2.13;1.92;;;4.60;47.20;;;;;;5123081;28;20268;-62
2022/02/24 00:22:15;;;;;;;2.85;2.58;;;4.40;44.60;;;;;;5122806;28;20259;-62
2022/02/24 00:24:46;;;;;;;4.13;2.28;;;4.50;41.90;;;;;;5122231;28;20311;-62
2022/02/24 00:27:20;;;;;;;3.42;2.35;;;4.50;41.60;;;;;;5117104;28;20241;-62
2022/02/24 00:29:51;;;;;;;2.30;2.10;;;4.40;42.80;;;;;;5122922;28;20204;-62
2022/02/24 00:32:22;;;;;;;3.97;2.45;;;4.30;42.80;;;;;;5122870;28;20208;-63
2022/02/24 00:34:55;;;;;;;3.10;2.60;;;4.30;43.00;;;;;;5123257;28;20214;-62
2022/02/24 00:37:26;;;;;;;2.20;1.92;;;4.30;42.20;;;;;;5122895;28;20196;-62
2022/02/24 00:39:57;;;;;;;2.38;1.90;;;4.20;42.00;;;;;;5122916;28;20294;-62
2022/02/24 00:42:29;;;;;;;2.75;2.00;;;4.10;42.70;;;;;;5123392;28;20204;-61
2022/02/24 00:45:00;;;;;;;2.85;2.40;;;4.00;43.60;;;;;;5122862;28;20204;-62
2022/02/24 00:47:31;;;;;;;2.17;2.00;;;3.90;43.90;;;;;;5122860;28;20679;-62
2022/02/24 00:50:04;;;;;;;2.38;2.10;;;3.90;44.50;;;;;;5123683;28;20198;-62
2022/02/24 00:52:35;;;;;;;3.88;2.63;;;3.90;45.50;;;;;;5123243;28;20206;-62
2022/02/24 00:55:07;;;;;;;6.00;3.10;;;3.90;46.20;;;;;;5122637;28;20295;-61
2022/02/24 00:57:38;;;;;;;3.30;2.97;;;3.90;46.00;;;;;;5123261;28;20321;-61
2022/02/24 01:00:09;;;;;;;3.35;2.30;;;3.90;48.60;;;;;;5122571;28;20552;-61
2022/02/24 01:02:41;;;;;;;5.15;3.75;;;3.90;48.80;;;;;;5122550;28;20200;-62
2022/02/24 01:05:14;;;;;;;3.45;2.40;;;3.90;48.50;;;;;;5122369;28;20192;-61
2022/02/24 01:07:45;;;;;;;2.65;2.45;;;3.80;46.30;;;;;;5123482;28;20196;-61
2022/02/24 01:10:16;;;;;;;3.03;2.78;;;3.70;46.20;;;;;;5122103;28;20267;-62
2022/02/24 01:12:47;;;;;;;3.92;2.60;;;3.80;45.60;;;;;;5120998;28;20211;-61
2022/02/24 01:15:18;;;;;;;2.97;2.78;;;3.70;46.10;;;;;;5121517;28;20210;-61
2022/02/24 01:17:52;;;;;;;3.45;3.15;;;3.70;45.60;;;;;;5118879;28;20260;-62
2022/02/24 01:20:40;;;;;;;5.03;3.17;;;3.50;46.20;;;;;;5117744;28;20195;-62
2022/02/24 01:23:11;;;;;;;4.00;3.60;;;3.50;47.50;;;;;;5119721;28;20196;-61
2022/02/24 01:25:42;;;;;;;3.47;3.17;;;3.50;46.90;;;;;;5121194;28;20213;-68
2022/02/24 01:28:16;;;;;;;4.20;3.80;;;3.30;47.20;;;;;;5121912;28;20287;-66
2022/02/24 01:30:47;;;;;;;6.53;3.15;;;3.30;48.60;;;;;;5120029;28;20196;-63
2022/02/24 01:33:18;;;;;;;3.15;2.25;;;3.30;54.10;;;;;;5122563;28;20271;-60
2022/02/24 01:35:53;;;;;;;2.67;2.47;;;3.40;51.70;;;;;;5124831;28;20184;-61
2022/02/24 01:38:24;;;;;;;3.88;3.45;;;3.30;50.00;;;;;;5125896;28;20194;-62
2022/02/24 01:40:55;;;;;;;4.05;3.70;;;3.10;49.60;;;;;;5122768;28;20283;-63
2022/02/24 01:43:28;;;;;;;3.33;3.05;;;3.00;49.70;;;;;;5125635;28;20210;-62
2022/02/24 01:45:59;;;;;;;4.95;3.25;;;3.00;48.80;;;;;;5124606;28;20231;-60
2022/02/24 01:48:31;;;;;;;3.67;2.95;;;3.00;49.00;;;;;;5124814;28;20263;-60
2022/02/24 01:51:04;;;;;;;3.28;2.97;;;3.00;48.90;;;;;;5126584;28;20659;-61
2022/02/24 01:53:37;;;;;;;3.88;3.50;;;2.90;49.10;;;;;;5123995;28;20188;-62
2022/02/24 01:56:08;;;;;;;3.80;3.50;;;2.80;49.50;;;;;;5126024;28;20291;-60
2022/02/24 01:58:39;;;;;;;4.50;3.83;;;2.70;52.50;;;;;;5124920;28;20214;-61
2022/02/24 02:01:10;;;;;;;4.55;4.15;;;2.60;52.90;;;;;;5125773;28;20269;-60
2022/02/24 02:03:43;;;;;;;4.78;4.35;;;2.50;52.20;;;;;;5125154;28;20217;-64
2022/02/24 02:06:15;;;;;;;4.38;3.95;;;2.40;53.10;;;;;;5122192;28;20497;-66
2022/02/24 02:08:46;;;;;;;4.88;4.47;;;2.40;55.20;;;;;;5124713;27;20188;-62
2022/02/24 02:11:17;;;;;;;4.57;4.18;;;2.30;56.10;;;;;;5125602;28;20196;-62
2022/02/24 02:13:49;;;;;;;4.65;4.20;;;2.30;54.10;;;;;;5124235;27;20279;-68
2022/02/24 02:16:20;;;;;;;4.43;3.75;;;2.30;56.10;;;;;;5125644;28;20267;-66
2022/02/24 02:18:51;;;;;;;4.85;4.30;;;2.20;55.70;;;;;;5125772;28;20287;-63
2022/02/24 02:21:23;;;;;;;5.60;3.55;;;2.20;55.30;;;;;;5122185;28;20184;-63
2022/02/24 02:23:54;;;;;;;3.78;3.38;;;2.20;58.40;;;;;;5124411;28;20601;-63
2022/02/24 02:26:25;;;;;;;3.92;3.40;;;2.10;59.70;;;;;;5122814;28;20223;-66
2022/02/24 02:28:56;;;;;;;4.90;3.95;;;2.10;59.10;;;;;;5124657;28;20370;-64
2022/02/24 02:31:27;;;;;;;4.63;4.07;;;2.00;60.20;;;;;;5124707;28;20295;-67
2022/02/24 02:34:03;;;;;;;4.75;4.20;;;2.00;61.50;;;;;;5122969;28;20585;-66
2022/02/24 02:36:37;;;;;;;4.93;4.45;;;1.90;60.00;;;;;;5124479;28;20267;-65
2022/02/24 02:39:11;;;;;;;4.68;4.28;;;1.80;61.40;;;;;;5123654;28;20191;-63
2022/02/24 02:41:46;;;;;;;4.90;4.32;;;1.80;64.70;;;;;;5125363;28;20204;-62
2022/02/24 02:44:18;;;;;;;4.88;4.20;;;1.60;64.70;;;;;;5122903;27;20208;-67
2022/02/24 02:46:49;;;;;;;6.28;5.18;;;1.60;63.60;;;;;;5119351;28;20288;-60
2022/02/24 02:49:23;;;;;;;9.07;5.97;;;1.60;67.70;;;;;;5124727;28;20919;-61
2022/02/24 02:51:55;;;;;;;5.80;5.30;;;1.60;61.40;;;;;;5117863;28;20255;-60
2022/02/24 02:54:26;;;;;;;5.90;5.18;;;1.40;61.90;;;;;;5123506;28;20350;-61
2022/02/24 02:56:57;;;;;;;6.38;5.78;;;1.50;66.80;;;;;;5122592;28;20238;-61
2022/02/24 02:59:28;;;;;;;6.45;5.38;;;1.40;67.90;;;;;;5121537;28;20232;-61
2022/02/24 03:01:59;;;;;;;7.00;5.70;;;1.40;70.50;;;;;;5124060;28;20208;-60
2022/02/24 03:04:30;;;;;;;6.65;5.30;;;1.40;70.70;;;;;;5122035;28;20203;-63
2022/02/24 03:07:03;;;;;;;7.18;5.88;;;1.30;70.80;;;;;;5122699;28;20591;-61
2022/02/24 03:09:34;;;;;;;8.70;7.22;;;1.30;73.10;;;;;;5120589;28;20200;-60
2022/02/24 03:12:06;;;;;;;8.32;7.25;;;1.30;75.90;;;;;;5123340;27;20260;-63
2022/02/24 03:14:38;;;;;;;8.15;6.80;;;1.20;74.10;;;;;;5118796;28;20196;-60
2022/02/24 03:17:09;;;;;;;7.75;6.65;;;1.20;73.40;;;;;;5122303;28;20267;-60
2022/02/24 03:19:40;;;;;;;8.65;7.75;;;1.10;73.70;;;;;;5122809;28;20199;-60
2022/02/24 03:22:14;;;;;;;9.90;8.13;;;1.00;74.50;;;;;;5120781;28;20200;-60
2022/02/24 03:24:45;;;;;;;11.98;9.43;;;1.10;76.40;;;;;;5121540;28;20528;-60
2022/02/24 03:27:16;;;;;;;15.60;12.50;;;1.00;77.80;;;;;;5124062;28;20223;-61
2022/02/24 03:29:47;;;;;;;16.85;11.68;;;1.00;75.50;;;;;;5122349;28;20260;-62
2022/02/24 03:32:18;;;;;;;11.05;9.95;;;0.90;75.10;;;;;;5124682;28;20202;-61
2022/02/24 03:34:50;;;;;;;15.65;11.57;;;0.90;79.40;;;;;;5124549;28;20514;-61
2022/02/24 03:37:23;;;;;;;13.20;8.55;;;0.80;79.30;;;;;;5124315;28;20185;-62
2022/02/24 03:39:54;;;;;;;10.60;8.18;;;0.90;87.20;;;;;;5124003;28;20543;-62
2022/02/24 03:42:25;;;;;;;9.60;7.85;;;0.90;88.30;;;;;;5124497;28;20204;-61
2022/02/24 03:44:57;;;;;;;10.18;7.65;;;0.80;83.80;;;;;;5115759;28;20259;-62
2022/02/24 03:47:28;;;;;;;12.00;7.72;;;0.80;81.40;;;;;;5122795;28;20215;-62
2022/02/24 03:50:01;;;;;;;7.68;6.40;;;0.80;81.80;;;;;;5124102;28;20223;-62
2022/02/24 03:52:34;;;;;;;8.57;7.30;;;0.70;78.60;;;;;;5122690;28;20184;-62
2022/02/24 03:55:05;;;;;;;8.70;7.80;;;0.70;82.90;;;;;;5119646;28;20196;-61
2022/02/24 03:57:36;;;;;;;11.90;9.25;;;0.70;83.60;;;;;;5118906;28;20231;-61
2022/02/24 04:00:09;;;;;;;10.52;8.20;;;0.70;85.60;;;;;;5122672;28;20207;-61
2022/02/24 04:02:40;;;;;;;10.30;8.68;;;0.70;85.60;;;;;;5122976;28;20219;-63
2022/02/24 04:05:13;;;;;;;12.00;8.13;;;0.80;91.00;;;;;;5121946;28;20200;-62
2022/02/24 04:07:45;;;;;;;11.40;8.25;;;0.70;90.50;;;;;;5122682;28;20716;-62
2022/02/24 04:10:17;;;;;;;9.13;8.02;;;0.60;90.60;;;;;;5123145;28;20198;-62
2022/02/24 04:12:49;;;;;;;12.00;8.60;;;0.50;88.60;;;;;;5112340;28;20267;-63
2022/02/24 04:15:20;;;;;;;9.10;7.93;;;0.50;89.90;;;;;;5122730;27;20206;-62
2022/02/24 04:17:51;;;;;;;10.55;9.52;;;0.50;89.80;;;;;;5122460;28;20224;-62
2022/02/24 04:20:21;;;;;;;12.00;9.60;;;0.40;89.60;;;;;;5119498;28;20202;-61
2022/02/24 04:22:54;;;;;;;13.88;8.57;;;0.40;91.10;;;;;;5122746;27;20210;-61
2022/02/24 04:25:25;;;;;;;11.65;8.85;;;0.40;92.00;;;;;;5121956;28;20207;-61
2022/02/24 04:27:56;;;;;;;9.27;8.05;;;0.40;92.20;;;;;;5121847;28;20224;-61
2022/02/24 04:30:27;;;;;;;9.23;7.22;;;0.30;91.60;;;;;;5121648;28;20204;-62
2022/02/24 04:32:58;;;;;;;8.63;7.55;;;0.30;91.50;;;;;;5120837;28;20204;-62
2022/02/24 04:35:29;;;;;;;10.80;8.00;;;0.30;90.80;;;;;;5122219;27;20185;-62
2022/02/24 04:38:04;;;;;;;8.95;7.60;;;0.20;89.30;;;;;;5122054;28;20195;-60
2022/02/24 04:40:35;;;;;;;9.38;8.48;;;0.20;90.50;;;;;;5122227;28;20242;-62
2022/02/24 04:43:06;;;;;;;10.02;8.00;;;0.20;90.60;;;;;;5123247;28;20196;-62
2022/02/24 04:45:37;;;;;;;10.13;8.93;;;0.10;90.90;;;;;;5121913;28;20219;-62
2022/02/24 04:48:08;;;;;;;10.77;9.30;;;0.10;95.10;;;;;;5122019;28;20216;-62
2022/02/24 04:50:39;;;;;;;9.55;8.27;;;0.20;96.60;;;;;;5121133;28;20206;-62
2022/02/24 04:53:12;;;;;;;10.20;8.30;;;0.20;96.60;;;;;;5122127;28;20267;-61
2022/02/24 04:55:44;;;;;;;11.80;8.52;;;0.10;94.20;;;;;;5117874;28;20215;-61
2022/02/24 04:58:14;;;;;;;11.25;8.65;;;0.00;93.10;;;;;;5122375;28;20335;-62
2022/02/24 05:00:45;;;;;;;10.95;8.80;;;0.00;91.00;;;;;;5122192;28;20259;-61
2022/02/24 05:03:16;;;;;;;10.10;7.82;;;-0.10;91.80;;;;;;5123012;28;20200;-62
2022/02/24 05:05:48;;;;;;;11.40;8.88;;;-0.10;91.50;;;;;;5121906;28;20192;-61
2022/02/24 05:08:22;;;;;;;12.35;9.00;;;-0.20;91.90;;;;;;5124554;28;20245;-62
2022/02/24 05:10:54;;;;;;;11.18;9.23;;;-0.10;91.60;;;;;;5126693;28;20258;-62
2022/02/24 05:13:25;;;;;;;10.07;8.90;;;-0.20;91.20;;;;;;5127071;28;20211;-62
2022/02/24 05:15:56;;;;;;;14.15;9.55;;;-0.20;90.00;;;;;;5126257;28;20288;-62
2022/02/24 05:18:32;;;;;;;11.77;9.85;;;-0.10;90.00;;;;;;5124890;28;20207;-61
2022/02/24 05:21:05;;;;;;;10.68;9.38;;;-0.10;91.40;;;;;;5124511;28;20283;-62
2022/02/24 05:23:40;;;;;;;13.32;10.00;;;-0.10;92.50;;;;;;5125932;28;20210;-62
2022/02/24 05:26:10;;;;;;;15.63;9.90;;;-0.30;92.00;;;;;;5126310;28;20207;-62
2022/02/24 05:28:42;;;;;;;12.18;10.20;;;-0.30;92.90;;;;;;5122252;28;20220;-62
2022/02/24 05:31:13;;;;;;;12.05;10.45;;;-0.20;94.10;;;;;;5126908;28;20200;-62
2022/02/24 05:33:47;;;;;;;11.32;10.13;;;-0.20;93.80;;;;;;5113703;28;20295;-61
2022/02/24 05:36:17;;;;;;;12.07;10.88;;;-0.30;94.20;;;;;;5128931;27;20184;-61
2022/02/24 05:38:54;;;;;;;11.23;9.90;;;-0.30;95.10;;;;;;5125070;27;20283;-61
2022/02/24 05:41:25;;;;;;;12.35;9.32;;;-0.30;94.00;;;;;;5125021;28;20234;-61
2022/02/24 05:43:56;;;;;;;12.50;10.10;;;-0.30;93.80;;;;;;5129147;27;20274;-61
2022/02/24 05:46:30;;;;;;;14.00;10.90;;;-0.30;95.70;;;;;;5130089;27;20199;-61
2022/02/24 05:49:06;;;;;;;16.70;10.57;;;-0.30;96.00;;;;;;5127526;27;20220;-61
2022/02/24 05:51:37;;;;;;;14.63;10.32;;;-0.20;96.20;;;;;;5125650;27;20205;-61
2022/02/24 05:54:14;;;;;;;12.85;9.80;;;-0.30;95.90;;;;;;5123155;28;20230;-61
2022/02/24 05:56:45;;;;;;;12.20;10.25;;;-0.30;96.80;;;;;;5121968;28;20310;-61
2022/02/24 05:59:19;;;;;;;11.18;10.00;;;-0.20;96.80;;;;;;5124985;28;20211;-61
2022/02/24 06:01:50;;;;;;;13.65;9.88;;;-0.20;97.20;;;;;;5126083;28;20320;-61
2022/02/24 06:04:31;;;;;;;12.02;10.57;;;-0.20;94.70;;;;;;5124754;27;20235;-61
2022/02/24 06:07:02;;;;;;;12.77;9.63;;;-0.20;96.70;;;;;;5124730;28;20214;-61
2022/02/24 06:09:35;;;;;;;11.02;9.20;;;0.00;97.40;;;;;;5125481;28;20219;-61
2022/02/24 06:12:07;;;;;;;11.82;9.77;;;0.00;95.80;;;;;;5125739;28;20184;-61
2022/02/24 06:14:38;;;;;;;11.45;8.90;;;0.00;93.80;;;;;;5124200;28;20294;-61
2022/02/24 06:17:10;;;;;;;11.43;9.15;;;-0.10;93.80;;;;;;5124479;28;20204;-61
2022/02/24 06:19:43;;;;;;;11.30;8.68;;;0.00;95.60;;;;;;5123178;28;20649;-61
2022/02/24 06:22:18;;;;;;;15.00;10.25;;;0.00;96.70;;;;;;5121322;28;20192;-62
2022/02/24 06:24:51;;;;;;;10.57;8.93;;;-0.10;97.30;;;;;;5122946;28;20225;-61
2022/02/24 06:27:22;;;;;;;13.40;9.30;;;-0.20;97.70;;;;;;5123661;28;20272;-61
2022/02/24 06:29:54;;;;;;;10.10;9.10;;;-0.20;97.90;;;;;;5122524;28;20639;-61
2022/02/24 06:32:25;;;;;;;13.15;9.50;;;-0.30;98.10;;;;;;5125164;28;20285;-61
2022/02/24 06:34:58;;;;;;;12.05;9.43;;;-0.20;97.50;;;;;;5121958;28;20220;-61
2022/02/24 06:37:30;;;;;;;16.15;9.75;;;-0.30;97.60;;;;;;5120648;28;20241;-61
2022/02/24 06:40:03;;;;;;;12.20;9.07;;;-0.40;97.90;;;;;;5124181;28;20216;-61
2022/02/24 06:42:34;;;;;;;13.30;10.60;;;-0.40;98.20;;;;;;5124973;28;20184;-61
2022/02/24 06:45:12;;;;;;;12.20;8.75;;;-0.50;94.10;;;;;;5123801;28;20217;-61
2022/02/24 06:47:43;;;;;;;11.30;8.98;;;-0.50;94.00;;;;;;5123413;28;20666;-61
2022/02/24 06:50:14;;;;;;;12.73;8.32;;;-0.40;96.20;;;;;;5121810;28;20216;-61
2022/02/24 06:52:46;;;;;;;11.27;8.55;;;-0.50;95.40;;;;;;5123692;28;20210;-60
2022/02/24 06:55:21;;;;;;;10.35;8.38;;;-0.50;94.40;;;;;;5122999;28;20231;-61
2022/02/24 06:57:53;;;;;;;11.77;8.00;;;-0.50;92.70;;;;;;5121308;28;20257;-61
2022/02/24 07:00:25;;;;;;;10.65;7.55;;;-0.50;93.00;;;;;;5123283;28;20210;-61
2022/02/24 07:02:55;;;;;;;10.90;9.20;;;-0.60;94.30;;;;;;5122017;28;20259;-61
2022/02/24 07:05:27;;;;;;;9.90;8.90;;;-0.50;95.30;;;;;;5123390;28;20208;-61
2022/02/24 07:08:01;;;;;;;10.73;9.60;;;-0.60;95.20;;;;;;5123206;28;20207;-61
2022/02/24 07:10:39;;;;;;;15.10;9.20;;;-0.60;94.00;;;;;;5123548;28;20220;-61
2022/02/24 07:13:10;;;;;;;11.95;8.90;;;-0.50;92.70;;;;;;5124910;28;20195;-61
2022/02/24 07:15:44;;;;;;;11.77;10.30;;;-0.50;93.30;;;;;;5122856;28;20276;-60
2022/02/24 07:18:15;;;;;;;13.95;8.98;;;-0.40;93.80;;;;;;5122723;28;20211;-60
2022/02/24 07:20:46;;;;;;;12.85;9.88;;;-0.30;94.90;;;;;;5123305;28;20218;-61
2022/02/24 07:23:17;;;;;;;13.02;10.63;;;-0.30;92.50;;;;;;5122993;28;20200;-61
2022/02/24 07:25:50;;;;;;;11.63;8.82;;;-0.20;91.50;;;;;;5121954;28;20189;-60
2022/02/24 07:28:21;;;;;;;13.32;9.95;;;-0.10;91.50;;;;;;5123420;28;20260;-60
2022/02/24 07:30:53;;;;;;;11.25;9.93;;;0.00;90.80;;;;;;5121949;28;20230;-61
2022/02/24 07:33:24;;;;;;;11.75;9.48;;;0.00;91.70;;;;;;5123223;28;20265;-59
2022/02/24 07:35:55;;;;;;;9.60;8.50;;;-0.10;92.10;;;;;;5122372;28;20234;-62
2022/02/24 07:38:26;;;;;;;14.98;10.32;;;-0.20;92.50;;;;;;5122657;28;20241;-59
2022/02/24 07:41:02;;;;;;;13.95;10.40;;;-0.10;89.30;;;;;;5123463;28;20214;-60
2022/02/24 07:43:33;;;;;;;12.48;9.60;;;-0.20;90.20;;;;;;5123875;28;20195;-59
2022/02/24 07:46:07;;;;;;;11.63;8.85;;;-0.10;87.70;;;;;;5124104;28;20207;-60
2022/02/24 07:48:38;;;;;;;12.38;9.30;;;0.00;86.40;;;;;;5122887;28;20294;-59
2022/02/24 07:51:09;;;;;;;12.93;10.18;;;0.10;86.50;;;;;;5117509;28;20219;-59
2022/02/24 07:53:40;;;;;;;12.10;9.55;;;0.10;85.60;;;;;;5121755;28;20242;-60
2022/02/24 07:56:13;;;;;;;10.70;9.57;;;0.00;84.50;;;;;;5123064;28;20226;-59
2022/02/24 07:58:44;;;;;;;11.70;9.70;;;0.00;84.40;;;;;;5122130;27;20544;-59
2022/02/24 08:01:15;;;;;;;10.63;9.18;;;0.00;84.30;;;;;;5122409;28;20519;-59
2022/02/24 08:03:46;;;;;;;12.13;10.05;;;0.00;84.90;;;;;;5122316;28;20276;-59
2022/02/24 08:06:17;;;;;;;10.77;8.77;;;-0.10;85.50;;;;;;5123197;28;20366;-59
2022/02/24 08:08:48;;;;;;;14.32;9.50;;;0.00;85.30;;;;;;5121345;28;20208;-59
2022/02/24 08:11:23;;;;;;;13.05;9.20;;;0.00;84.60;;;;;;5123410;28;20309;-59
2022/02/24 08:13:54;;;;;;;14.50;9.43;;;0.00;85.20;;;;;;5121880;28;20199;-59
2022/02/24 08:16:25;;;;;;;11.70;10.20;;;0.00;86.40;;;;;;5122572;28;20192;-59
2022/02/24 08:18:56;;;;;;;13.10;10.40;;;0.00;89.40;;;;;;5121698;28;20223;-59
2022/02/24 08:21:27;;;;;;;11.70;10.15;;;0.10;90.00;;;;;;5122516;28;20210;-59
2022/02/24 08:23:58;;;;;;;19.75;10.48;;;0.10;89.30;;;;;;5121272;28;20222;-60
2022/02/24 08:26:30;;;;;;;14.45;10.48;;;0.20;88.10;;;;;;5122319;28;20512;-60
2022/02/24 08:29:01;;;;;;;13.90;10.45;;;0.30;88.70;;;;;;5122119;28;20200;-59
2022/02/24 08:31:36;;;;;;;14.50;9.32;;;0.30;86.80;;;;;;5121549;28;20219;-59
2022/02/24 08:34:07;;;;;;;12.93;9.70;;;0.40;85.10;;;;;;5122640;28;20208;-59
2022/02/24 08:36:38;;;;;;;13.80;10.23;;;0.50;83.70;;;;;;5122660;28;20200;-60
2022/02/24 08:39:09;;;;;;;12.82;8.95;;;0.60;83.20;;;;;;5116331;28;20196;-59
2022/02/24 08:41:45;;;;;;;12.65;11.00;;;0.60;83.90;;;;;;5122982;28;20556;-59
2022/02/24 08:44:16;;;;;;;12.82;8.73;;;0.60;84.20;;;;;;5122828;28;20184;-59
2022/02/24 08:46:47;;;;;;;10.68;8.88;;;0.60;83.10;;;;;;5122407;28;20280;-59
2022/02/24 08:49:18;;;;;;;13.25;9.65;;;0.70;81.80;;;;;;5122086;28;20264;-59
2022/02/24 08:51:49;;;;;;;11.73;9.20;;;0.60;83.30;;;;;;5121820;28;20343;-59
2022/02/24 08:54:22;;;;;;;16.73;10.82;;;0.70;81.60;;;;;;5121962;28;20290;-60
2022/02/24 08:56:55;;;;;;;12.35;9.20;;;0.80;81.70;;;;;;5121938;28;20322;-60
2022/02/24 08:59:26;;;;;;;10.25;9.20;;;0.90;80.90;;;;;;5121581;28;20211;-60
2022/02/24 09:01:57;;;;;;;9.70;8.27;;;0.90;79.30;;;;;;5122414;28;20259;-60
2022/02/24 09:04:28;;;;;;;14.85;9.50;;;0.80;81.30;;;;;;5121987;28;20219;-60
2022/02/24 09:06:59;;;;;;;10.48;7.95;;;0.90;80.70;;;;;;5121396;28;20332;-60
2022/02/24 09:09:30;;;;;;;9.75;8.00;;;1.00;80.60;;;;;;5121859;28;20282;-60
2022/02/24 09:12:03;;;;;;;11.05;8.15;;;1.00;79.60;;;;;;5121696;28;20271;-60
2022/02/24 09:14:35;;;;;;;12.02;8.43;;;1.00;79.60;;;;;;5122316;28;20215;-60
2022/02/24 09:17:06;;;;;;;8.45;6.68;;;0.80;81.10;;;;;;5121756;28;20227;-60
2022/02/24 09:19:39;;;;;;;10.40;7.22;;;1.00;81.30;;;;;;5121950;28;20204;-60
2022/02/24 09:22:12;;;;;;;8.50;7.60;;;1.10;79.80;;;;;;5117200;28;20208;-60
2022/02/24 09:24:43;;;;;;;9.57;7.80;;;1.00;79.70;;;;;;5121093;28;20208;-60
2022/02/24 09:27:16;;;;;;;7.45;6.65;;;1.00;79.20;;;;;;5122696;28;20200;-60
2022/02/24 09:29:47;;;;;;;8.80;7.10;;;1.00;79.10;;;;;;5121446;28;20204;-60
2022/02/24 09:32:18;;;;;;;8.90;7.00;;;0.90;79.40;;;;;;5120296;28;20249;-60
2022/02/24 09:34:48;;;;;;;14.55;8.48;;;0.90;79.50;;;;;;5121727;28;20379;-60
2022/02/24 09:37:20;;;;;;;11.45;8.10;;;0.90;79.30;;;;;;5121191;28;20453;-60
2022/02/24 09:39:51;;;;;;;8.98;6.68;;;1.00;79.60;;;;;;5121731;28;20196;-60
2022/02/24 09:42:24;;;;;;;11.60;6.90;;;1.00;80.20;;;;;;5121710;28;20184;-60
2022/02/24 09:44:54;;;;;;;9.98;6.93;;;1.10;79.30;;;;;;5121720;28;20238;-60
2022/02/24 09:47:26;;;;;;;7.63;6.00;;;1.10;79.60;;;;;;5122139;28;20200;-60
2022/02/24 09:49:59;;;;;;;7.75;6.38;;;1.10;79.20;;;;;;5111620;28;20196;-60
2022/02/24 09:52:30;;;;;;;8.13;6.22;;;1.00;81.50;;;;;;5121167;28;20200;-60
2022/02/24 09:55:01;;;;;;;9.15;6.20;;;1.00;80.50;;;;;;5124684;28;20194;-60
2022/02/24 09:57:33;;;;;;;8.77;6.93;;;1.10;80.00;;;;;;5125755;28;20215;-60
2022/02/24 10:00:05;;;;;;;7.20;6.50;;;1.10;80.60;;;;;;5119260;28;20196;-60
2022/02/24 10:02:36;;;;;;;9.07;6.75;;;1.20;79.90;;;;;;5124739;28;20203;-60
2022/02/24 10:05:12;;;;;;;7.28;6.57;;;1.20;79.60;;;;;;5125352;28;20204;-60
2022/02/24 10:07:44;;;;;;;9.25;6.75;;;1.20;78.60;;;;;;5124821;28;20200;-60
2022/02/24 10:10:27;;;;;;;7.40;6.20;;;1.30;78.80;;;;;;5114492;28;20195;-60
2022/02/24 10:13:09;;;;;;;7.72;6.80;;;1.40;78.20;;;;;;5117491;28;20190;-60
2022/02/24 10:15:42;;;;;;;7.93;6.60;;;1.30;79.20;;;;;;5126000;28;20196;-60
2022/02/24 10:18:14;;;;;;;8.82;7.55;;;1.20;80.30;;;;;;5120280;28;20259;-60
2022/02/24 10:20:47;;;;;;;6.95;6.15;;;1.20;79.50;;;;;;5125098;28;20200;-60
2022/02/24 10:23:20;;;;;;;7.03;5.68;;;1.30;79.20;;;;;;5124341;28;20231;-60
2022/02/24 10:25:54;;;;;;;8.68;6.80;;;1.40;78.20;;;;;;5124793;28;20202;-60
2022/02/24 10:28:35;;;;;;;8.05;6.60;;;1.30;78.20;;;;;;5125551;28;20208;-60
2022/02/24 10:31:09;;;;;;;9.95;6.28;;;1.30;79.70;;;;;;5122317;28;20223;-60
2022/02/24 10:33:43;;;;;;;8.65;6.88;;;1.20;80.10;;;;;;5124882;28;20238;-60
2022/02/24 10:36:20;;;;;;;6.50;5.85;;;1.30;80.70;;;;;;5122447;28;20228;-59
2022/02/24 10:39:02;;;;;;;7.18;6.05;;;1.20;81.00;;;;;;5124220;28;20207;-60
2022/02/24 10:41:39;;;;;;;7.05;6.15;;;1.10;81.30;;;;;;5117004;28;20214;-60
2022/02/24 10:44:19;;;;;;;6.50;5.25;;;1.00;81.40;;;;;;5118820;28;20213;-60
2022/02/24 10:47:12;;;;;;;6.18;5.57;;;1.00;82.80;;;;;;5124910;28;20271;-60
2022/02/24 10:49:45;;;;;;;7.15;6.00;;;1.10;83.50;;;;;;5124520;28;20626;-60
2022/02/24 10:52:17;;;;;;;10.45;6.78;;;1.10;83.40;;;;;;5119977;28;20277;-60
2022/02/24 10:54:59;;;;;;;7.65;6.00;;;1.10;84.10;;;;;;5124561;28;20208;-60
2022/02/24 10:57:31;;;;;;;6.53;5.90;;;1.20;85.10;;;;;;5123507;28;20356;-60
2022/02/24 11:00:05;;;;;;;6.88;5.97;;;1.20;84.30;;;;;;5122941;28;20226;-60
2022/02/24 11:02:36;;;;;;;7.40;5.63;;;1.20;84.10;;;;;;5121934;28;20631;-60
2022/02/24 11:05:08;;;;;;;6.88;5.82;;;1.20;86.20;;;;;;5125095;27;20196;-60
2022/02/24 11:07:39;;;;;;;6.07;5.47;;;1.10;84.40;;;;;;5123984;28;20307;-60
2022/02/24 11:10:11;;;;;;;8.38;5.65;;;1.20;87.30;;;;;;5124353;28;20196;-60
2022/02/24 11:12:43;;;;;;;6.40;5.10;;;1.20;85.50;;;;;;5122238;28;20228;-60
2022/02/24 11:15:16;;;;;;;7.30;5.35;;;1.20;84.30;;;;;;5124817;28;20204;-60
2022/02/24 11:17:48;;;;;;;6.13;5.53;;;1.20;86.40;;;;;;5122810;28;20548;-60
2022/02/24 11:20:20;;;;;;;7.18;5.50;;;1.20;87.70;;;;;;5123836;28;20196;-60
2022/02/24 11:22:51;;;;;;;5.50;5.00;;;1.20;89.10;;;;;;5123586;28;20200;-60
2022/02/24 11:25:28;;;;;;;5.88;4.82;;;1.20;88.90;;;;;;5123753;28;20301;-61
2022/02/24 11:28:07;;;;;;;6.50;5.60;;;1.20;90.30;;;;;;5122835;28;20204;-60
2022/02/24 11:30:41;;;;;;;9.25;5.70;;;1.10;90.30;;;;;;5123530;28;20214;-60
2022/02/24 11:33:14;;;;;;;7.03;5.60;;;1.10;90.50;;;;;;5122783;28;20587;-60
2022/02/24 11:35:45;;;;;;;7.70;5.65;;;1.10;90.40;;;;;;5121495;28;20275;-60
2022/02/24 11:38:17;;;;;;;6.72;5.88;;;1.10;90.60;;;;;;5123027;28;20277;-59
2022/02/24 11:40:48;;;;;;;6.10;5.00;;;1.10;90.60;;;;;;5124356;28;20435;-60
2022/02/24 11:43:22;;;;;;;5.78;5.05;;;1.00;90.80;;;;;;5121446;28;20200;-61
2022/02/24 11:45:56;;;;;;;8.07;5.05;;;1.10;91.00;;;;;;5123355;28;20299;-60
2022/02/24 11:48:34;;;;;;;7.32;4.57;;;1.10;90.70;;;;;;5123686;28;20206;-60
2022/02/24 11:51:07;;;;;;;5.35;4.85;;;1.20;90.20;;;;;;5122995;28;20214;-60
2022/02/24 11:53:40;;;;;;;8.23;4.68;;;1.10;88.90;;;;;;5122833;28;20196;-60
2022/02/24 11:56:19;;;;;;;5.78;5.20;;;1.10;88.90;;;;;;5123665;28;20230;-60
2022/02/24 11:58:52;;;;;;;7.20;5.03;;;1.20;89.80;;;;;;5122047;28;20200;-60
2022/02/24 12:01:38;;;;;;;5.10;4.60;;;1.30;87.60;;;;;;5123188;28;20218;-60
2022/02/24 12:04:21;;;;;;;8.35;5.00;;;1.30;86.10;;;;;;5123276;28;20272;-60
2022/02/24 12:06:58;;;;;;;7.85;5.28;;;1.30;85.30;;;;;;5122442;28;20200;-60
2022/02/24 12:09:32;;;;;;;5.10;4.60;;;1.40;84.40;;;;;;5122013;28;20210;-60
2022/02/24 12:12:04;;;;;;;5.40;4.60;;;1.50;82.40;;;;;;5121804;28;20339;-60
2022/02/24 12:14:45;;;;;;;7.82;5.10;;;1.50;81.80;;;;;;5123863;28;20553;-60
2022/02/24 12:17:29;;;;;;;7.90;4.85;;;1.50;82.00;;;;;;5121156;28;20192;-60
2022/02/24 12:20:01;;;;;;;7.30;5.28;;;1.40;87.30;;;;;;5122269;28;20218;-60
2022/02/24 12:22:43;;;;;;;6.10;5.50;;;1.50;90.60;;;;;;5121938;28;20206;-60
2022/02/24 12:25:19;;;;;;;6.40;5.35;;;1.40;90.20;;;;;;5122752;28;20196;-60
2022/02/24 12:28:01;;;;;;;5.63;5.00;;;1.50;94.20;;;;;;5121611;28;20211;-61
2022/02/24 12:30:34;;;;;;;5.65;5.05;;;1.40;91.70;;;;;;5122088;28;20203;-60
2022/02/24 12:33:09;;;;;;;5.97;4.30;;;1.30;91.90;;;;;;5121901;28;20223;-61
2022/02/24 12:35:41;;;;;;;8.27;4.97;;;1.30;91.10;;;;;;5122566;27;20215;-60
2022/02/24 12:38:15;;;;;;;7.30;5.40;;;1.30;92.00;;;;;;5118421;28;20208;-60
2022/02/24 12:40:47;;;;;;;5.50;4.30;;;1.30;91.50;;;;;;5122229;28;20241;-60
2022/02/24 12:43:26;;;;;;;8.05;5.03;;;1.20;92.70;;;;;;5121087;28;20233;-60
2022/02/24 12:45:57;;;;;;;5.63;4.82;;;1.30;93.00;;;;;;5122894;28;20279;-61
2022/02/24 12:48:34;;;;;;;5.57;5.07;;;1.30;94.70;;;;;;5121359;28;20216;-60
2022/02/24 12:51:07;;;;;;;6.13;5.55;;;1.20;94.50;;;;;;5123346;28;20509;-60
2022/02/24 12:53:38;;;;;;;5.82;4.90;;;1.40;95.30;;;;;;5121288;28;20220;-60
2022/02/24 12:56:10;;;;;;;10.25;5.20;;;1.30;97.30;;;;;;5122787;28;20246;-60
2022/02/24 12:58:44;;;;;;;6.38;5.40;;;1.10;97.50;;;;;;5121349;28;20295;-60
2022/02/24 13:01:15;;;;;;;6.20;5.50;;;1.10;97.00;;;;;;5108752;28;20195;-60
2022/02/24 13:03:59;;;;;;;11.32;5.63;;;1.00;97.20;;;;;;5122278;28;20696;-60
2022/02/24 13:06:35;;;;;;;7.20;5.05;;;1.10;96.80;;;;;;5122418;28;20181;-60
2022/02/24 13:12:02;;;;;;;5.72;5.10;;;1.20;96.70;;;;;;5119121;28;20230;-60
2022/02/24 13:14:35;;;;;;;5.35;4.85;;;1.20;97.10;;;;;;5121711;28;20286;-60
2022/02/24 13:17:08;;;;;;;9.25;4.93;;;1.10;97.50;;;;;;5120721;28;20204;-60
2022/02/24 13:19:41;;;;;;;5.43;4.43;;;1.00;97.90;;;;;;5115406;28;20204;-60
2022/02/24 13:22:12;;;;;;;6.65;4.75;;;1.00;97.90;;;;;;5121619;28;20204;-60